createdAt,value
2023-02-02T00:00:23.714Z,99435.22
2023-02-02T00:02:50.298Z,99440.94
2023-02-02T00:05:16.859Z,99356.09
2023-02-02T00:07:43.440Z,99456.66
2023-02-02T00:10:10.801Z,99457.03
2023-02-02T00:12:37.355Z,99471.28
2023-02-02T00:15:04.286Z,99477.91
2023-02-02T00:17:30.852Z,99481.06
2023-02-02T00:19:57.524Z,99477.66
2023-02-02T00:22:24.104Z,99495.03
2023-02-02T00:24:50.750Z,99487.59
2023-02-02T00:27:17.314Z,99499.75
2023-02-02T00:29:43.973Z,99496.63
2023-02-02T00:32:11.602Z,99497.03
2023-02-02T00:34:38.220Z,99511.22
2023-02-02T00:37:05.375Z,99501.97
2023-02-02T00:39:32.074Z,99511.63
2023-02-02T00:41:58.686Z,99517.03
2023-02-02T00:44:57.752Z,99515.28
2023-02-02T00:47:25.338Z,99509.97
2023-02-02T00:49:51.909Z,99489.97
2023-02-02T00:52:18.493Z,99340.88
2023-02-02T00:54:45.350Z,99312.91
2023-02-02T00:57:15.162Z,99477.91
2023-02-02T00:59:42.693Z,99520.16
2023-02-02T01:02:12.925Z,99312.41
2023-02-02T01:04:39.945Z,99437.06
2023-02-02T01:07:06.573Z,99235.34
2023-02-02T01:09:33.258Z,99398.47
2023-02-02T01:11:59.824Z,99544.53
2023-02-02T01:14:26.760Z,99542.75
2023-02-02T01:16:55.577Z,99495.09
2023-02-02T01:19:22.192Z,99554.53
2023-02-02T01:21:48.893Z,99555.78
2023-02-02T01:24:15.521Z,99563.56
2023-02-02T01:26:42.289Z,99544.09
2023-02-02T01:29:08.984Z,99578.22
2023-02-02T01:31:35.577Z,99578.09
2023-02-02T01:34:02.229Z,99577.34
2023-02-02T01:36:30.082Z,99592.31
2023-02-02T01:38:56.775Z,99589.06
2023-02-02T01:41:26.091Z,99590.53
2023-02-02T01:44:01.823Z,99595.31
2023-02-02T01:46:29.803Z,99600.16
2023-02-02T01:49:18.356Z,99601.81
2023-02-02T01:51:55.247Z,99605.59
2023-02-02T01:54:44.896Z,99579.69
2023-02-02T01:57:23.579Z,99618.22
2023-02-02T01:59:53.087Z,99610.06
2023-02-02T02:02:19.901Z,99553.78
2023-02-02T02:04:50.398Z,99621.75
2023-02-02T02:07:18.322Z,99277.28
2023-02-02T02:09:44.890Z,99454.94
2023-02-02T02:12:16.098Z,99630.97
2023-02-02T02:15:08.641Z,99056.34
2023-02-02T02:17:35.320Z,99645.94
2023-02-02T02:20:55.532Z,99654.06
2023-02-02T02:23:52.918Z,99658.03
2023-02-02T02:26:58.065Z,99666.22
2023-02-02T02:29:54.046Z,99664.75
2023-02-02T02:32:42.736Z,99680.91
2023-02-02T02:35:31.539Z,99686.16
2023-02-02T02:38:25.945Z,99692.09
2023-02-02T02:41:04.744Z,99635.06
2023-02-02T02:43:37.854Z,99498.44
2023-02-02T02:46:05.106Z,99708.22
2023-02-02T02:48:31.713Z,99634.69
2023-02-02T02:51:28.379Z,99535.50
2023-02-02T02:53:56.338Z,99711.38
2023-02-02T02:56:39.619Z,99728.50
2023-02-02T02:59:30.056Z,99168.94
2023-02-02T03:02:17.018Z,99715.13
2023-02-02T03:04:52.622Z,99722.94
2023-02-02T03:07:26.138Z,99318.56
2023-02-02T03:09:55.705Z,99740.28
2023-02-02T03:12:22.507Z,99673.31
2023-02-02T03:14:49.146Z,99739.06
2023-02-02T03:17:15.733Z,99745.94
2023-02-02T03:19:42.389Z,99740.19
2023-02-02T03:22:09.014Z,99751.00
2023-02-02T03:24:35.636Z,99647.91
2023-02-02T03:27:02.381Z,99747.88
2023-02-02T03:29:29.591Z,99770.38
2023-02-02T03:31:56.264Z,99527.03
2023-02-02T03:34:22.911Z,98971.84
2023-02-02T03:36:49.563Z,99290.50
2023-02-02T03:39:16.168Z,99762.63
2023-02-02T03:41:42.780Z,99758.81
2023-02-02T03:44:09.447Z,99775.47
2023-02-02T03:46:36.035Z,99773.13
2023-02-02T03:49:02.789Z,99776.81
2023-02-02T03:51:29.375Z,99726.03
2023-02-02T03:53:56.022Z,99786.66
2023-02-02T03:56:22.646Z,99792.81
2023-02-02T03:58:49.288Z,99792.38
2023-02-02T04:01:15.931Z,99799.13
2023-02-02T04:03:42.802Z,99804.22
2023-02-02T04:06:09.492Z,99812.06
2023-02-02T04:08:36.210Z,99372.22
2023-02-02T04:11:02.778Z,99822.28
2023-02-02T04:13:29.479Z,99820.50
2023-02-02T04:16:00.366Z,99719.97
2023-02-02T04:18:28.184Z,99836.72
2023-02-02T04:21:01.999Z,99843.66
2023-02-02T04:23:29.569Z,99839.78
2023-02-02T04:25:56.992Z,99844.59
2023-02-02T04:28:24.592Z,99851.63
2023-02-02T04:30:52.729Z,99859.19
2023-02-02T04:33:20.716Z,99868.31
2023-02-02T04:35:47.286Z,99865.00
2023-02-02T04:38:14.415Z,99901.06
2023-02-02T04:40:42.864Z,99875.13
2023-02-02T04:43:10.394Z,99813.38
2023-02-02T04:45:37.122Z,99844.84
2023-02-02T04:48:04.148Z,99898.53
2023-02-02T04:50:31.394Z,99889.47
2023-02-02T04:52:58.191Z,99896.03
2023-02-02T04:55:25.076Z,99888.28
2023-02-02T04:57:51.969Z,99849.56
2023-02-02T05:00:18.825Z,99746.63
2023-02-02T05:02:45.515Z,99876.22
2023-02-02T05:05:14.120Z,99907.19
2023-02-02T05:07:41.085Z,99769.47
2023-02-02T05:10:09.829Z,99970.66
2023-02-02T05:12:36.597Z,99903.31
2023-02-02T05:15:05.275Z,99929.81
2023-02-02T05:17:32.287Z,99929.44
2023-02-02T05:19:59.122Z,99930.25
2023-02-02T05:22:25.916Z,99945.34
2023-02-02T05:24:52.471Z,99948.31
2023-02-02T05:27:19.078Z,99955.22
2023-02-02T05:29:47.529Z,99871.63
2023-02-02T05:32:14.141Z,99910.25
2023-02-02T05:34:40.698Z,99945.03
2023-02-02T05:37:07.341Z,99928.22
2023-02-02T05:39:33.936Z,99912.97
2023-02-02T05:42:00.667Z,99936.94
2023-02-02T05:44:27.248Z,99986.66
2023-02-02T05:46:53.848Z,99981.47
2023-02-02T05:49:20.467Z,99994.72
2023-02-02T05:51:50.060Z,99988.03
2023-02-02T05:54:20.364Z,99995.00
2023-02-02T05:56:48.501Z,99699.66
2023-02-02T05:59:15.227Z,99996.34
2023-02-02T06:01:41.813Z,100005.50
2023-02-02T06:04:08.421Z,100036.75
2023-02-02T06:06:35.749Z,100020.88
2023-02-02T06:09:02.777Z,100033.66
2023-02-02T06:11:29.662Z,100036.31
2023-02-02T06:13:56.471Z,99754.84
2023-02-02T06:16:23.660Z,99933.78
2023-02-02T06:18:50.824Z,100042.97
2023-02-02T06:21:19.812Z,99896.50
2023-02-02T06:23:46.623Z,99982.25
2023-02-02T06:26:13.839Z,100044.44
2023-02-02T06:28:40.744Z,99873.56
2023-02-02T06:31:09.400Z,100025.78
2023-02-02T06:33:36.079Z,99945.97
2023-02-02T06:36:04.861Z,100063.44
2023-02-02T06:38:31.621Z,99473.47
2023-02-02T06:41:02.516Z,100062.06
2023-02-02T06:43:30.075Z,100075.72
2023-02-02T06:46:00.193Z,100025.72
2023-02-02T06:48:27.478Z,100052.28
2023-02-02T06:50:54.352Z,100091.16
2023-02-02T06:53:23.783Z,100079.59
2023-02-02T06:55:57.893Z,100106.06
2023-02-02T06:58:24.593Z,100046.94
2023-02-02T07:00:51.261Z,100300.44
2023-02-02T07:03:21.344Z,100111.56
2023-02-02T07:05:50.881Z,100116.66
2023-02-02T07:08:17.789Z,100123.34
2023-02-02T07:11:09.241Z,100097.63
2023-02-02T07:13:31.264Z,100136.72
2023-02-02T07:15:58.292Z,99857.59
2023-02-02T07:18:25.151Z,99995.78
2023-02-02T07:20:51.797Z,100135.38
2023-02-02T07:23:18.431Z,100142.09
2023-02-02T07:25:45.113Z,100145.00
2023-02-02T07:28:11.698Z,100022.66
2023-02-02T07:30:38.436Z,99933.22
2023-02-02T07:33:05.096Z,100143.97
2023-02-02T07:35:31.742Z,100196.44
2023-02-02T07:37:58.410Z,100022.91
2023-02-02T07:40:25.016Z,100264.50
2023-02-02T07:42:51.846Z,100025.16
2023-02-02T07:45:27.638Z,100128.34
2023-02-02T07:48:01.053Z,100167.56
2023-02-02T07:50:29.869Z,100176.84
2023-02-02T07:52:58.229Z,100174.59
2023-02-02T07:55:24.868Z,100147.59
2023-02-02T07:57:55.521Z,100192.31
2023-02-02T08:00:23.029Z,100190.75
2023-02-02T08:02:49.948Z,100191.50
2023-02-02T08:05:16.912Z,100202.75
2023-02-02T08:07:44.672Z,100133.91
2023-02-02T08:10:11.974Z,100219.88
2023-02-02T08:12:38.610Z,100211.09
2023-02-02T08:15:05.640Z,100221.22
2023-02-02T08:17:32.268Z,100227.66
2023-02-02T08:19:58.862Z,100224.38
2023-02-02T08:22:25.405Z,100224.44
2023-02-02T08:24:52.006Z,100226.88
2023-02-02T08:27:18.541Z,100238.81
2023-02-02T08:29:46.033Z,100154.34
2023-02-02T08:32:12.570Z,100238.47
2023-02-02T08:34:40.882Z,100237.13
2023-02-02T08:37:07.713Z,100244.59
2023-02-02T08:39:34.398Z,100255.19
2023-02-02T08:42:00.989Z,100254.75
2023-02-02T08:44:28.740Z,100270.69
2023-02-02T08:47:14.308Z,100274.78
2023-02-02T08:49:42.408Z,100143.09
2023-02-02T08:52:09.092Z,100278.50
2023-02-02T08:54:41.618Z,100289.03
2023-02-02T08:57:16.472Z,99750.53
2023-02-02T08:59:45.555Z,100295.47
2023-02-02T09:02:13.798Z,100297.22
2023-02-02T09:04:42.529Z,100298.78
2023-02-02T09:07:09.224Z,100121.28
2023-02-02T09:09:35.858Z,100277.84
2023-02-02T09:12:02.413Z,100313.00
2023-02-02T09:14:29.192Z,100316.06
2023-02-02T09:16:55.774Z,100186.78
2023-02-02T09:19:22.521Z,100282.38
2023-02-02T09:21:50.496Z,100363.88
2023-02-02T09:24:17.491Z,100319.97
2023-02-02T09:26:45.058Z,100323.28
2023-02-02T09:29:16.397Z,100137.22
2023-02-02T09:31:43.506Z,100332.84
2023-02-02T09:34:12.840Z,100270.38
2023-02-02T09:36:40.250Z,100333.88
2023-02-02T09:39:07.608Z,100284.56
2023-02-02T09:41:37.224Z,100334.53
2023-02-02T09:44:39.770Z,100340.41
2023-02-02T09:47:12.445Z,100341.25
2023-02-02T09:49:53.907Z,100336.13
2023-02-02T09:52:32.888Z,100339.88
2023-02-02T09:55:04.794Z,100141.66
2023-02-02T09:57:39.103Z,100291.94
2023-02-02T10:00:16.429Z,100345.41
2023-02-02T10:02:46.013Z,100350.28
2023-02-02T10:05:19.407Z,100291.72
2023-02-02T10:07:51.499Z,100214.16
2023-02-02T10:10:26.658Z,100346.69
2023-02-02T10:13:00.186Z,100345.13
2023-02-02T10:15:35.109Z,100349.31
2023-02-02T10:18:20.025Z,100364.91
2023-02-02T10:21:13.824Z,100372.00
2023-02-02T10:23:44.313Z,100432.09
2023-02-02T10:26:25.409Z,100362.41
2023-02-02T10:28:58.154Z,100366.00
2023-02-02T10:31:34.978Z,100361.94
2023-02-02T10:34:08.591Z,100245.78
2023-02-02T10:36:56.938Z,100370.66
2023-02-02T10:39:28.063Z,100383.47
2023-02-02T10:42:16.414Z,100380.25
2023-02-02T10:44:58.748Z,100387.28
2023-02-02T10:47:31.593Z,100389.75
2023-02-02T10:50:15.556Z,100385.38
2023-02-02T10:52:47.504Z,100382.69
2023-02-02T10:55:14.073Z,100380.41
2023-02-02T10:57:58.964Z,100388.03
2023-02-02T11:00:47.410Z,100344.22
2023-02-02T11:03:17.422Z,100396.94
2023-02-02T11:06:02.299Z,100401.94
2023-02-02T11:08:35.891Z,100395.28
2023-02-02T11:11:19.792Z,100208.81
2023-02-02T11:13:53.475Z,100396.78
2023-02-02T11:16:22.879Z,100393.94
2023-02-02T11:18:49.937Z,100365.31
2023-02-02T11:21:23.135Z,100398.69
2023-02-02T11:24:16.709Z,100333.94
2023-02-02T11:26:50.883Z,100383.59
2023-02-02T11:29:41.157Z,100378.25
2023-02-02T11:32:29.830Z,100400.56
2023-02-02T11:35:02.493Z,100391.91
2023-02-02T11:37:30.221Z,100373.47
2023-02-02T11:40:24.158Z,100397.31
2023-02-02T11:42:52.882Z,100346.03
2023-02-02T11:45:35.519Z,100392.94
2023-02-02T11:48:14.266Z,100393.78
2023-02-02T11:50:46.645Z,100398.72
2023-02-02T11:53:27.369Z,100406.72
2023-02-02T11:55:56.232Z,100403.44
2023-02-02T11:58:27.945Z,100406.16
2023-02-02T12:00:58.478Z,100272.63
2023-02-02T12:03:48.595Z,100393.00
2023-02-02T12:06:24.499Z,100397.72
2023-02-02T12:08:56.944Z,100395.66
2023-02-02T12:11:55.816Z,100426.00
2023-02-02T12:14:32.022Z,100406.19
2023-02-02T12:17:18.023Z,100388.03
2023-02-02T12:19:52.941Z,100380.91
2023-02-02T12:22:41.197Z,100421.81
2023-02-02T12:25:36.225Z,100383.28
2023-02-02T12:28:58.206Z,100389.06
2023-02-02T12:31:37.338Z,100419.19
2023-02-02T12:34:25.813Z,100392.84
2023-02-02T12:37:26.576Z,100340.50
2023-02-02T12:40:21.961Z,100385.53
2023-02-02T12:43:04.347Z,100408.41
2023-02-02T12:45:40.440Z,100334.94
2023-02-02T12:48:34.212Z,100413.66
2023-02-02T12:51:17.418Z,100442.94
2023-02-02T12:54:33.144Z,100407.09
2023-02-02T12:56:55.718Z,100422.22
2023-02-02T12:59:48.421Z,100423.72
2023-02-02T13:02:38.342Z,100419.53
2023-02-02T13:05:31.588Z,100426.34
2023-02-02T13:08:10.395Z,100301.31
2023-02-02T13:10:42.097Z,100356.06
2023-02-02T13:13:14.948Z,100425.25
2023-02-02T13:15:49.516Z,100426.75
2023-02-02T13:19:08.281Z,100434.09
2023-02-02T13:21:37.246Z,100430.22
2023-02-02T13:24:12.297Z,100434.19
2023-02-02T13:26:43.930Z,100406.53
2023-02-02T13:29:10.629Z,100432.72
2023-02-02T13:32:00.334Z,100392.44
2023-02-02T13:34:34.398Z,100438.41
2023-02-02T13:37:11.254Z,100441.31
2023-02-02T13:39:47.874Z,100309.56
2023-02-02T13:42:30.042Z,100403.31
2023-02-02T13:45:03.343Z,100452.00
2023-02-02T13:47:48.427Z,100452.06
2023-02-02T13:50:20.162Z,100446.53
2023-02-02T13:52:58.507Z,100443.03
2023-02-02T13:55:41.050Z,100453.91
2023-02-02T13:58:17.004Z,100455.66
2023-02-02T14:00:49.202Z,99988.84
2023-02-02T14:03:29.036Z,100458.94
2023-02-02T14:06:09.925Z,100462.09
2023-02-02T14:08:37.506Z,100460.06
2023-02-02T14:11:07.704Z,100458.34
2023-02-02T14:14:01.777Z,100452.38
2023-02-02T14:16:31.922Z,100455.16
2023-02-02T14:19:09.544Z,100088.88
2023-02-02T14:21:36.466Z,100460.34
2023-02-02T14:24:24.709Z,100309.84
2023-02-02T14:27:13.176Z,100466.09
2023-02-02T14:29:52.893Z,100464.03
2023-02-02T14:32:27.633Z,100473.03
2023-02-02T14:35:13.789Z,100476.03
2023-02-02T14:38:05.945Z,100491.03
2023-02-02T14:40:58.729Z,100315.59
2023-02-02T14:43:49.638Z,100478.53
2023-02-02T14:46:23.994Z,100482.06
2023-02-02T14:48:53.595Z,100482.94
2023-02-02T14:51:29.160Z,100485.22
2023-02-02T14:54:03.223Z,100480.47
2023-02-02T14:56:51.647Z,100478.88
2023-02-02T14:59:38.770Z,100479.31
2023-02-02T15:02:32.725Z,100482.22
2023-02-02T15:05:32.823Z,100484.44
2023-02-02T15:08:21.860Z,100464.28
2023-02-02T15:10:50.191Z,100483.56
2023-02-02T15:13:19.085Z,100341.38
2023-02-02T15:15:49.655Z,100477.16
2023-02-02T15:18:22.538Z,100487.22
2023-02-02T15:20:50.805Z,100338.13
2023-02-02T15:23:42.400Z,100489.03
2023-02-02T15:26:30.905Z,100481.97
2023-02-02T15:29:01.397Z,100494.94
2023-02-02T15:31:35.389Z,100487.25
2023-02-02T15:34:16.079Z,100490.97
2023-02-02T15:36:46.531Z,100460.91
2023-02-02T15:39:33.711Z,100467.34
2023-02-02T15:42:23.197Z,100410.56
2023-02-02T15:44:49.863Z,100296.19
2023-02-02T15:47:20.078Z,100420.72
2023-02-02T15:49:46.741Z,100500.16
2023-02-02T15:52:16.977Z,100497.41
2023-02-02T15:54:57.808Z,100494.78
2023-02-02T15:57:34.156Z,100407.22
2023-02-02T16:00:21.981Z,100490.50
2023-02-02T16:02:53.579Z,99982.56
2023-02-02T16:05:32.513Z,100497.16
2023-02-02T16:08:06.940Z,100460.28
2023-02-02T16:10:35.130Z,100490.09
2023-02-02T16:13:02.311Z,100210.13
2023-02-02T16:15:31.920Z,99971.34
2023-02-02T16:18:05.380Z,100484.09
2023-02-02T16:20:35.612Z,100483.88
2023-02-02T16:23:06.020Z,100409.16
2023-02-02T16:25:36.792Z,100490.44
2023-02-02T16:28:04.045Z,100489.97
2023-02-02T16:30:35.689Z,100487.53
2023-02-02T16:33:28.792Z,100485.88
2023-02-02T16:35:56.570Z,100464.72
2023-02-02T16:38:25.046Z,100491.09
2023-02-02T16:41:13.209Z,100406.00
2023-02-02T16:43:42.195Z,100487.38
2023-02-02T16:46:15.259Z,100446.75
2023-02-02T16:48:59.329Z,100490.22
2023-02-02T16:51:32.881Z,100208.38
2023-02-02T16:54:06.563Z,100484.75
2023-02-02T16:56:36.122Z,100481.34
2023-02-02T16:59:15.384Z,100271.63
2023-02-02T17:01:50.080Z,100443.78
2023-02-02T17:04:27.314Z,100458.22
2023-02-02T17:06:56.928Z,100608.41
2023-02-02T17:09:27.525Z,100481.75
2023-02-02T17:11:57.787Z,100486.91
2023-02-02T17:14:33.280Z,100117.56
2023-02-02T17:17:00.009Z,100498.06
2023-02-02T17:19:29.706Z,100123.69
2023-02-02T17:21:58.578Z,100518.50
2023-02-02T17:24:25.442Z,100497.44
2023-02-02T17:26:52.294Z,100389.53
2023-02-02T17:29:20.151Z,100252.75
2023-02-02T17:31:46.921Z,100487.38
2023-02-02T17:34:15.036Z,100502.19
2023-02-02T17:36:42.724Z,100469.41
2023-02-02T17:39:11.684Z,100147.88
2023-02-02T17:41:39.234Z,100312.91
2023-02-02T17:44:06.867Z,100295.50
2023-02-02T17:46:35.118Z,100482.97
2023-02-02T17:49:02.115Z,100490.78
2023-02-02T17:51:30.721Z,100480.31
2023-02-02T17:54:00.370Z,100475.75
2023-02-02T17:56:27.476Z,100473.53
2023-02-02T17:58:54.328Z,100412.81
2023-02-02T18:01:21.336Z,100495.88
2023-02-02T18:03:48.359Z,100362.50
2023-02-02T18:06:15.084Z,100478.72
2023-02-02T18:08:41.939Z,100531.47
2023-02-02T18:11:11.555Z,100372.41
2023-02-02T18:13:38.529Z,100340.66
2023-02-02T18:16:06.782Z,100484.22
2023-02-02T18:18:33.475Z,100296.19
2023-02-02T18:21:00.100Z,100469.88
2023-02-02T18:23:27.135Z,100421.25
2023-02-02T18:25:54.100Z,100392.88
2023-02-02T18:28:20.846Z,99979.50
2023-02-02T18:30:47.621Z,100409.41
2023-02-02T18:33:17.836Z,100397.16
2023-02-02T18:35:46.702Z,100398.25
2023-02-02T18:38:14.630Z,100430.72
2023-02-02T18:40:41.552Z,100065.41
2023-02-02T18:43:08.912Z,100310.84
2023-02-02T18:45:36.568Z,100451.97
2023-02-02T18:48:03.792Z,100418.50
2023-02-02T18:50:30.508Z,100461.69
2023-02-02T18:52:57.155Z,100079.97
2023-02-02T18:55:24.395Z,100453.56
2023-02-02T18:57:51.308Z,100383.00
2023-02-02T19:00:19.224Z,100445.78
2023-02-02T19:02:45.953Z,100446.75
2023-02-02T19:05:31.513Z,100451.50
2023-02-02T19:07:59.073Z,100376.84
2023-02-02T19:10:27.586Z,100375.22
2023-02-02T19:13:03.263Z,100431.88
2023-02-02T19:15:37.242Z,100295.84
2023-02-02T19:18:14.033Z,100355.50
2023-02-02T19:20:41.266Z,100432.50
2023-02-02T19:23:25.580Z,100282.72
2023-02-02T19:25:54.588Z,100390.88
2023-02-02T19:28:28.000Z,100418.16
2023-02-02T19:30:56.975Z,100363.69
2023-02-02T19:33:39.362Z,100264.75
2023-02-02T19:36:13.366Z,100348.09
2023-02-02T19:38:40.503Z,100053.72
2023-02-02T19:41:24.709Z,100326.69
2023-02-02T19:43:59.046Z,99901.78
2023-02-02T19:46:27.101Z,100362.06
2023-02-02T19:49:06.254Z,100012.78
2023-02-02T19:51:45.489Z,100398.47
2023-02-02T19:54:29.388Z,100398.25
2023-02-02T19:57:07.717Z,98802.16
2023-02-02T19:59:35.656Z,100300.25
2023-02-02T20:02:39.230Z,100390.59
2023-02-02T20:05:12.484Z,100392.41
2023-02-02T20:07:39.786Z,99312.28
2023-02-02T20:10:24.956Z,100382.34
2023-02-02T20:12:52.950Z,99524.84
2023-02-02T20:15:33.814Z,100131.09
2023-02-02T20:18:03.828Z,100194.88
2023-02-02T20:20:41.913Z,98832.75
2023-02-02T20:23:36.480Z,99923.66
2023-02-02T20:26:15.819Z,100257.19
2023-02-02T20:28:46.110Z,100391.09
2023-02-02T20:31:16.471Z,100183.16
2023-02-02T20:34:17.687Z,100363.09
2023-02-02T20:36:44.803Z,100361.59
2023-02-02T20:39:33.798Z,100358.19
2023-02-02T20:42:03.879Z,100357.13
2023-02-02T20:44:33.105Z,100352.44
2023-02-02T20:47:00.656Z,100277.94
2023-02-02T20:49:31.773Z,100191.03
2023-02-02T20:52:01.997Z,100342.31
2023-02-02T20:54:29.131Z,100344.31
2023-02-02T20:56:56.323Z,100334.50
2023-02-02T20:59:23.082Z,100332.44
2023-02-02T21:01:50.639Z,100329.97
2023-02-02T21:04:18.759Z,100323.09
2023-02-02T21:06:48.969Z,100279.66
2023-02-02T21:09:16.787Z,100324.88
2023-02-02T21:11:44.419Z,100387.09
2023-02-02T21:14:11.601Z,100272.34
2023-02-02T21:16:38.874Z,100194.97
2023-02-02T21:19:05.831Z,100312.09
2023-02-02T21:21:32.526Z,100312.75
2023-02-02T21:24:00.825Z,99796.38
2023-02-02T21:26:30.263Z,100225.38
2023-02-02T21:28:58.313Z,100229.44
2023-02-02T21:31:26.137Z,100295.97
2023-02-02T21:33:53.810Z,100281.78
2023-02-02T21:36:28.211Z,100183.53
2023-02-02T21:39:21.670Z,99901.44
2023-02-02T21:42:09.587Z,99793.13
2023-02-02T21:44:39.596Z,100263.91
2023-02-02T21:47:26.429Z,100264.84
2023-02-02T21:49:55.865Z,100113.94
2023-02-02T21:52:22.925Z,100257.97
2023-02-02T21:54:49.714Z,100247.63
2023-02-02T21:57:20.748Z,100247.03
2023-02-02T21:59:54.173Z,100238.88
2023-02-02T22:02:39.730Z,100199.03
2023-02-02T22:05:22.426Z,100219.97
2023-02-02T22:07:50.702Z,100033.28
2023-02-02T22:10:20.408Z,100215.19
2023-02-02T22:12:47.052Z,100178.41
2023-02-02T22:15:20.802Z,100199.25
2023-02-02T22:17:48.206Z,100072.34
2023-02-02T22:20:14.715Z,100178.84
2023-02-02T22:22:45.575Z,100176.81
2023-02-02T22:25:18.220Z,100168.28
2023-02-02T22:27:57.628Z,100176.22
2023-02-02T22:30:33.146Z,100062.72
2023-02-02T22:32:59.880Z,99932.59
2023-02-02T22:35:26.600Z,99872.06
2023-02-02T22:37:53.547Z,100147.19
2023-02-02T22:40:24.101Z,100138.53
2023-02-02T22:43:09.378Z,100145.13
2023-02-02T22:45:36.099Z,100168.63
2023-02-02T22:48:02.813Z,99936.50
2023-02-02T22:50:31.098Z,100117.47
2023-02-02T22:52:58.125Z,100020.41
2023-02-02T22:55:25.171Z,100102.38
2023-02-02T22:57:52.038Z,99877.59
2023-02-02T23:00:21.371Z,100081.50
2023-02-02T23:02:48.761Z,100091.59
2023-02-02T23:05:18.231Z,100083.22
2023-02-02T23:07:45.346Z,100079.03
2023-02-02T23:10:20.862Z,100076.22
2023-02-02T23:12:48.463Z,100059.66
2023-02-02T23:15:16.333Z,100062.44
2023-02-02T23:17:43.063Z,100117.31
2023-02-02T23:20:13.172Z,100051.25
2023-02-02T23:22:40.397Z,100051.69
2023-02-02T23:25:07.534Z,99994.06
2023-02-02T23:27:34.228Z,100050.03
2023-02-02T23:30:00.797Z,100038.91
2023-02-02T23:32:27.564Z,99996.22
2023-02-02T23:34:54.266Z,100074.00
2023-02-02T23:37:21.128Z,100022.63
2023-02-02T23:39:48.082Z,100009.81
2023-02-02T23:42:14.821Z,99884.88
2023-02-02T23:44:41.489Z,99585.41
2023-02-02T23:47:09.354Z,99950.25
2023-02-02T23:49:36.528Z,99904.00
2023-02-02T23:52:03.832Z,99988.94
2023-02-02T23:54:31.283Z,99997.22
2023-02-02T23:56:58.589Z,99841.25
2023-02-02T23:59:25.249Z,99939.16
